sensor_id;sensor_type;location;lat;lon;timestamp;P1;durP1;ratioP1;P2;durP2;ratioP2
53781;SDS011;39692;53.114;7.060;2023-03-01T00:01:02;11.75;;;6.28;;
53781;SDS011;39692;53.114;7.060;2023-03-01T00:03:28;12.43;;;6.53;;
53781;SDS011;39692;53.114;7.060;2023-03-01T00:05:55;15.88;;;6.90;;
53781;SDS011;39692;53.114;7.060;2023-03-01T00:08:21;8.75;;;5.40;;
53781;SDS011;39692;53.114;7.060;2023-03-01T00:10:47;10.98;;;5.13;;
53781;SDS011;39692;53.114;7.060;2023-03-01T00:13:13;8.63;;;5.28;;
53781;SDS011;39692;53.114;7.060;2023-03-01T00:15:39;8.43;;;4.70;;
53781;SDS011;39692;53.114;7.060;2023-03-01T00:18:06;8.68;;;5.30;;
53781;SDS011;39692;53.114;7.060;2023-03-01T00:20:33;11.48;;;5.95;;
53781;SDS011;39692;53.114;7.060;2023-03-01T00:22:59;11.52;;;6.10;;
53781;SDS011;39692;53.114;7.060;2023-03-01T00:25:25;15.02;;;7.78;;
53781;SDS011;39692;53.114;7.060;2023-03-01T00:27:51;19.65;;;8.90;;
53781;SDS011;39692;53.114;7.060;2023-03-01T00:30:17;10.77;;;6.30;;
53781;SDS011;39692;53.114;7.060;2023-03-01T00:32:44;12.32;;;6.47;;
53781;SDS011;39692;53.114;7.060;2023-03-01T00:35:10;13.30;;;7.30;;
53781;SDS011;39692;53.114;7.060;2023-03-01T00:37:36;12.60;;;7.38;;
53781;SDS011;39692;53.114;7.060;2023-03-01T00:40:02;10.45;;;6.15;;
53781;SDS011;39692;53.114;7.060;2023-03-01T00:42:31;16.60;;;6.68;;
53781;SDS011;39692;53.114;7.060;2023-03-01T00:44:57;8.10;;;5.43;;
53781;SDS011;39692;53.114;7.060;2023-03-01T00:47:23;10.90;;;5.05;;
53781;SDS011;39692;53.114;7.060;2023-03-01T00:49:49;8.40;;;4.38;;
53781;SDS011;39692;53.114;7.060;2023-03-01T00:52:15;11.52;;;5.65;;
53781;SDS011;39692;53.114;7.060;2023-03-01T00:54:41;9.90;;;4.53;;
53781;SDS011;39692;53.114;7.060;2023-03-01T00:57:07;9.77;;;5.45;;
53781;SDS011;39692;53.114;7.060;2023-03-01T00:59:33;10.43;;;4.70;;
53781;SDS011;39692;53.114;7.060;2023-03-01T01:01:59;7.32;;;4.53;;
53781;SDS011;39692;53.114;7.060;2023-03-01T01:04:26;7.72;;;4.30;;
53781;SDS011;39692;53.114;7.060;2023-03-01T01:06:52;8.82;;;5.28;;
53781;SDS011;39692;53.114;7.060;2023-03-01T01:09:18;10.20;;;5.10;;
53781;SDS011;39692;53.114;7.060;2023-03-01T01:11:45;12.30;;;6.90;;
53781;SDS011;39692;53.114;7.060;2023-03-01T01:14:11;8.98;;;6.22;;
53781;SDS011;39692;53.114;7.060;2023-03-01T01:16:37;10.15;;;6.38;;
53781;SDS011;39692;53.114;7.060;2023-03-01T01:19:03;12.30;;;6.68;;
53781;SDS011;39692;53.114;7.060;2023-03-01T01:21:30;12.95;;;7.03;;
53781;SDS011;39692;53.114;7.060;2023-03-01T01:23:56;12.07;;;5.88;;
53781;SDS011;39692;53.114;7.060;2023-03-01T01:26:24;14.75;;;8.07;;
53781;SDS011;39692;53.114;7.060;2023-03-01T01:28:50;13.65;;;7.57;;
53781;SDS011;39692;53.114;7.060;2023-03-01T01:31:17;11.35;;;6.40;;
53781;SDS011;39692;53.114;7.060;2023-03-01T01:33:43;14.63;;;6.43;;
53781;SDS011;39692;53.114;7.060;2023-03-01T01:36:09;14.43;;;7.68;;
53781;SDS011;39692;53.114;7.060;2023-03-01T01:38:36;9.75;;;6.07;;
53781;SDS011;39692;53.114;7.060;2023-03-01T01:41:03;14.68;;;7.35;;
53781;SDS011;39692;53.114;7.060;2023-03-01T01:43:31;11.48;;;6.95;;
53781;SDS011;39692;53.114;7.060;2023-03-01T01:46:18;10.80;;;6.75;;
53781;SDS011;39692;53.114;7.060;2023-03-01T01:48:48;17.20;;;8.38;;
53781;SDS011;39692;53.114;7.060;2023-03-01T01:51:17;15.15;;;7.70;;
53781;SDS011;39692;53.114;7.060;2023-03-01T01:53:44;11.57;;;6.47;;
53781;SDS011;39692;53.114;7.060;2023-03-01T01:56:11;9.02;;;6.15;;
53781;SDS011;39692;53.114;7.060;2023-03-01T01:58:38;17.13;;;6.68;;
53781;SDS011;39692;53.114;7.060;2023-03-01T02:01:04;9.80;;;5.28;;
53781;SDS011;39692;53.114;7.060;2023-03-01T02:03:31;13.10;;;6.07;;
53781;SDS011;39692;53.114;7.060;2023-03-01T02:06:19;12.15;;;6.57;;
53781;SDS011;39692;53.114;7.060;2023-03-01T02:08:48;12.95;;;7.45;;
53781;SDS011;39692;53.114;7.060;2023-03-01T02:11:15;13.23;;;6.47;;
53781;SDS011;39692;53.114;7.060;2023-03-01T02:13:41;9.70;;;5.35;;
53781;SDS011;39692;53.114;7.060;2023-03-01T02:16:08;10.38;;;6.78;;
53781;SDS011;39692;53.114;7.060;2023-03-01T02:18:35;9.95;;;6.13;;
53781;SDS011;39692;53.114;7.060;2023-03-01T02:23:30;6.95;;;3.90;;
53781;SDS011;39692;53.114;7.060;2023-03-01T02:28:42;9.80;;;5.30;;
53781;SDS011;39692;53.114;7.060;2023-03-01T02:31:09;9.68;;;5.80;;
53781;SDS011;39692;53.114;7.060;2023-03-01T02:33:54;12.57;;;6.20;;
53781;SDS011;39692;53.114;7.060;2023-03-01T02:36:22;9.40;;;5.35;;
53781;SDS011;39692;53.114;7.060;2023-03-01T02:38:49;8.82;;;5.28;;
53781;SDS011;39692;53.114;7.060;2023-03-01T02:41:17;10.55;;;5.65;;
53781;SDS011;39692;53.114;7.060;2023-03-01T02:43:44;8.02;;;4.18;;
53781;SDS011;39692;53.114;7.060;2023-03-01T02:46:19;10.35;;;5.88;;
53781;SDS011;39692;53.114;7.060;2023-03-01T02:48:46;8.27;;;4.85;;
53781;SDS011;39692;53.114;7.060;2023-03-01T02:51:22;5.78;;;3.03;;
53781;SDS011;39692;53.114;7.060;2023-03-01T02:54:01;6.20;;;4.00;;
53781;SDS011;39692;53.114;7.060;2023-03-01T02:56:31;7.90;;;4.13;;
53781;SDS011;39692;53.114;7.060;2023-03-01T02:58:57;6.38;;;2.78;;
53781;SDS011;39692;53.114;7.060;2023-03-01T03:01:26;11.98;;;5.15;;
53781;SDS011;39692;53.114;7.060;2023-03-01T03:04:02;9.15;;;5.90;;
53781;SDS011;39692;53.114;7.060;2023-03-01T03:06:28;9.90;;;6.65;;
53781;SDS011;39692;53.114;7.060;2023-03-01T03:08:55;12.00;;;5.93;;
53781;SDS011;39692;53.114;7.060;2023-03-01T03:11:21;11.07;;;5.85;;
53781;SDS011;39692;53.114;7.060;2023-03-01T03:13:47;11.55;;;5.85;;
53781;SDS011;39692;53.114;7.060;2023-03-01T03:16:13;15.55;;;8.13;;
53781;SDS011;39692;53.114;7.060;2023-03-01T03:18:39;15.52;;;7.18;;
53781;SDS011;39692;53.114;7.060;2023-03-01T03:21:08;9.30;;;6.07;;
53781;SDS011;39692;53.114;7.060;2023-03-01T03:23:35;10.63;;;6.45;;
53781;SDS011;39692;53.114;7.060;2023-03-01T03:26:02;11.50;;;5.90;;
53781;SDS011;39692;53.114;7.060;2023-03-01T03:28:32;10.95;;;5.13;;
53781;SDS011;39692;53.114;7.060;2023-03-01T03:30:58;10.30;;;5.38;;
53781;SDS011;39692;53.114;7.060;2023-03-01T03:33:28;9.63;;;5.68;;
53781;SDS011;39692;53.114;7.060;2023-03-01T03:35:54;8.32;;;5.75;;
53781;SDS011;39692;53.114;7.060;2023-03-01T03:38:20;10.20;;;6.82;;
53781;SDS011;39692;53.114;7.060;2023-03-01T03:40:48;12.73;;;7.22;;
53781;SDS011;39692;53.114;7.060;2023-03-01T03:43:16;8.40;;;5.18;;
53781;SDS011;39692;53.114;7.060;2023-03-01T03:45:43;11.45;;;6.82;;
53781;SDS011;39692;53.114;7.060;2023-03-01T03:48:09;9.77;;;5.68;;
53781;SDS011;39692;53.114;7.060;2023-03-01T03:50:36;12.50;;;6.20;;
53781;SDS011;39692;53.114;7.060;2023-03-01T03:53:03;8.75;;;5.97;;
53781;SDS011;39692;53.114;7.060;2023-03-01T03:55:29;32.17;;;8.27;;
53781;SDS011;39692;53.114;7.060;2023-03-01T03:57:57;59.20;;;13.05;;
53781;SDS011;39692;53.114;7.060;2023-03-01T04:00:26;44.80;;;11.93;;
53781;SDS011;39692;53.114;7.060;2023-03-01T04:02:53;22.70;;;10.48;;
53781;SDS011;39692;53.114;7.060;2023-03-01T04:05:21;29.02;;;11.63;;
53781;SDS011;39692;53.114;7.060;2023-03-01T04:07:48;16.48;;;9.30;;
53781;SDS011;39692;53.114;7.060;2023-03-01T04:10:15;13.43;;;7.47;;
53781;SDS011;39692;53.114;7.060;2023-03-01T04:12:42;7.47;;;5.38;;
53781;SDS011;39692;53.114;7.060;2023-03-01T04:15:08;13.40;;;6.93;;
53781;SDS011;39692;53.114;7.060;2023-03-01T04:17:41;8.05;;;4.57;;
53781;SDS011;39692;53.114;7.060;2023-03-01T04:20:11;6.80;;;4.97;;
53781;SDS011;39692;53.114;7.060;2023-03-01T04:22:38;12.10;;;6.78;;
53781;SDS011;39692;53.114;7.060;2023-03-01T04:25:05;8.55;;;5.15;;
53781;SDS011;39692;53.114;7.060;2023-03-01T04:27:35;9.95;;;5.63;;
53781;SDS011;39692;53.114;7.060;2023-03-01T04:30:04;8.35;;;5.53;;
53781;SDS011;39692;53.114;7.060;2023-03-01T04:32:31;9.25;;;4.95;;
53781;SDS011;39692;53.114;7.060;2023-03-01T04:34:57;8.70;;;4.85;;
53781;SDS011;39692;53.114;7.060;2023-03-01T04:37:23;6.55;;;4.22;;
53781;SDS011;39692;53.114;7.060;2023-03-01T04:39:50;4.53;;;2.58;;
53781;SDS011;39692;53.114;7.060;2023-03-01T04:42:16;8.00;;;4.50;;
53781;SDS011;39692;53.114;7.060;2023-03-01T04:44:43;10.27;;;5.30;;
53781;SDS011;39692;53.114;7.060;2023-03-01T04:47:09;12.43;;;6.40;;
53781;SDS011;39692;53.114;7.060;2023-03-01T04:49:35;15.23;;;6.30;;
53781;SDS011;39692;53.114;7.060;2023-03-01T04:52:02;11.15;;;5.25;;
53781;SDS011;39692;53.114;7.060;2023-03-01T04:54:29;9.15;;;4.47;;
53781;SDS011;39692;53.114;7.060;2023-03-01T04:56:55;7.28;;;4.35;;
53781;SDS011;39692;53.114;7.060;2023-03-01T04:59:21;5.38;;;3.42;;
53781;SDS011;39692;53.114;7.060;2023-03-01T05:01:48;19.20;;;4.53;;
53781;SDS011;39692;53.114;7.060;2023-03-01T05:04:14;6.53;;;4.22;;
53781;SDS011;39692;53.114;7.060;2023-03-01T05:06:40;10.27;;;5.68;;
53781;SDS011;39692;53.114;7.060;2023-03-01T05:09:06;7.22;;;4.25;;
53781;SDS011;39692;53.114;7.060;2023-03-01T05:11:33;10.38;;;5.90;;
53781;SDS011;39692;53.114;7.060;2023-03-01T05:14:04;15.45;;;7.30;;
53781;SDS011;39692;53.114;7.060;2023-03-01T05:16:31;14.18;;;8.25;;
53781;SDS011;39692;53.114;7.060;2023-03-01T05:18:57;15.68;;;6.65;;
53781;SDS011;39692;53.114;7.060;2023-03-01T05:21:23;13.85;;;6.72;;
53781;SDS011;39692;53.114;7.060;2023-03-01T05:23:50;15.00;;;8.50;;
53781;SDS011;39692;53.114;7.060;2023-03-01T05:26:16;10.18;;;5.97;;
53781;SDS011;39692;53.114;7.060;2023-03-01T05:28:43;11.77;;;6.13;;
53781;SDS011;39692;53.114;7.060;2023-03-01T05:31:09;12.00;;;7.63;;
53781;SDS011;39692;53.114;7.060;2023-03-01T05:33:36;13.55;;;7.45;;
53781;SDS011;39692;53.114;7.060;2023-03-01T05:36:03;10.57;;;6.65;;
53781;SDS011;39692;53.114;7.060;2023-03-01T05:38:29;8.35;;;5.70;;
53781;SDS011;39692;53.114;7.060;2023-03-01T05:40:55;13.32;;;6.50;;
53781;SDS011;39692;53.114;7.060;2023-03-01T05:43:21;12.57;;;6.10;;
53781;SDS011;39692;53.114;7.060;2023-03-01T05:45:47;12.75;;;6.57;;
53781;SDS011;39692;53.114;7.060;2023-03-01T05:48:13;10.68;;;6.63;;
53781;SDS011;39692;53.114;7.060;2023-03-01T05:50:40;10.10;;;5.15;;
53781;SDS011;39692;53.114;7.060;2023-03-01T05:53:11;10.98;;;6.35;;
53781;SDS011;39692;53.114;7.060;2023-03-01T05:55:38;9.43;;;5.85;;
53781;SDS011;39692;53.114;7.060;2023-03-01T05:58:06;8.13;;;5.72;;
53781;SDS011;39692;53.114;7.060;2023-03-01T06:00:33;9.48;;;4.57;;
53781;SDS011;39692;53.114;7.060;2023-03-01T06:02:59;33.80;;;8.93;;
53781;SDS011;39692;53.114;7.060;2023-03-01T06:05:26;100.20;;;13.48;;
53781;SDS011;39692;53.114;7.060;2023-03-01T06:07:52;112.78;;;15.30;;
53781;SDS011;39692;53.114;7.060;2023-03-01T06:10:19;166.57;;;14.07;;
53781;SDS011;39692;53.114;7.060;2023-03-01T06:12:45;62.92;;;14.32;;
53781;SDS011;39692;53.114;7.060;2023-03-01T06:15:12;58.08;;;17.17;;
53781;SDS011;39692;53.114;7.060;2023-03-01T06:17:39;78.40;;;11.13;;
53781;SDS011;39692;53.114;7.060;2023-03-01T06:20:10;34.90;;;8.23;;
53781;SDS011;39692;53.114;7.060;2023-03-01T06:22:36;72.18;;;10.93;;
53781;SDS011;39692;53.114;7.060;2023-03-01T06:25:02;62.70;;;8.90;;
53781;SDS011;39692;53.114;7.060;2023-03-01T06:27:29;33.95;;;8.20;;
53781;SDS011;39692;53.114;7.060;2023-03-01T06:29:55;29.02;;;9.23;;
53781;SDS011;39692;53.114;7.060;2023-03-01T06:32:21;14.52;;;6.38;;
53781;SDS011;39692;53.114;7.060;2023-03-01T06:34:47;74.95;;;8.27;;
53781;SDS011;39692;53.114;7.060;2023-03-01T06:37:13;45.75;;;8.23;;
53781;SDS011;39692;53.114;7.060;2023-03-01T06:39:39;66.22;;;7.93;;
53781;SDS011;39692;53.114;7.060;2023-03-01T06:42:05;36.63;;;6.55;;
53781;SDS011;39692;53.114;7.060;2023-03-01T06:44:32;27.55;;;7.80;;
53781;SDS011;39692;53.114;7.060;2023-03-01T06:46:58;54.28;;;10.32;;
53781;SDS011;39692;53.114;7.060;2023-03-01T06:49:24;48.72;;;8.75;;
53781;SDS011;39692;53.114;7.060;2023-03-01T06:51:51;127.05;;;15.00;;
53781;SDS011;39692;53.114;7.060;2023-03-01T06:54:17;152.40;;;18.90;;
53781;SDS011;39692;53.114;7.060;2023-03-01T06:56:46;216.63;;;17.77;;
53781;SDS011;39692;53.114;7.060;2023-03-01T06:59:12;187.70;;;21.00;;
53781;SDS011;39692;53.114;7.060;2023-03-01T07:01:38;133.90;;;16.05;;
53781;SDS011;39692;53.114;7.060;2023-03-01T07:04:04;135.93;;;20.45;;
53781;SDS011;39692;53.114;7.060;2023-03-01T07:06:30;217.35;;;21.02;;
53781;SDS011;39692;53.114;7.060;2023-03-01T07:08:56;204.73;;;27.70;;
53781;SDS011;39692;53.114;7.060;2023-03-01T07:11:22;116.15;;;16.00;;
53781;SDS011;39692;53.114;7.060;2023-03-01T07:13:48;169.20;;;21.88;;
53781;SDS011;39692;53.114;7.060;2023-03-01T07:16:14;88.43;;;14.90;;
53781;SDS011;39692;53.114;7.060;2023-03-01T07:18:41;217.70;;;24.60;;
53781;SDS011;39692;53.114;7.060;2023-03-01T07:21:08;265.45;;;25.92;;
53781;SDS011;39692;53.114;7.060;2023-03-01T07:23:34;150.63;;;15.90;;
53781;SDS011;39692;53.114;7.060;2023-03-01T07:26:00;112.97;;;12.98;;
53781;SDS011;39692;53.114;7.060;2023-03-01T07:28:26;119.93;;;13.13;;
53781;SDS011;39692;53.114;7.060;2023-03-01T07:30:52;113.22;;;13.80;;
53781;SDS011;39692;53.114;7.060;2023-03-01T07:33:18;45.53;;;10.85;;
53781;SDS011;39692;53.114;7.060;2023-03-01T07:35:45;85.63;;;11.25;;
53781;SDS011;39692;53.114;7.060;2023-03-01T07:38:11;88.07;;;11.95;;
53781;SDS011;39692;53.114;7.060;2023-03-01T07:40:37;98.25;;;13.43;;
53781;SDS011;39692;53.114;7.060;2023-03-01T07:43:03;96.78;;;13.13;;
53781;SDS011;39692;53.114;7.060;2023-03-01T07:45:29;83.13;;;11.75;;
53781;SDS011;39692;53.114;7.060;2023-03-01T07:47:55;67.88;;;12.25;;
53781;SDS011;39692;53.114;7.060;2023-03-01T07:50:21;75.75;;;13.15;;
53781;SDS011;39692;53.114;7.060;2023-03-01T07:52:49;49.22;;;11.43;;
53781;SDS011;39692;53.114;7.060;2023-03-01T07:55:15;69.43;;;13.63;;
53781;SDS011;39692;53.114;7.060;2023-03-01T07:57:42;26.88;;;10.45;;
53781;SDS011;39692;53.114;7.060;2023-03-01T08:00:09;50.17;;;11.85;;
53781;SDS011;39692;53.114;7.060;2023-03-01T08:02:36;38.95;;;9.80;;
53781;SDS011;39692;53.114;7.060;2023-03-01T08:05:02;95.15;;;11.65;;
53781;SDS011;39692;53.114;7.060;2023-03-01T08:07:28;100.15;;;12.52;;
53781;SDS011;39692;53.114;7.060;2023-03-01T08:09:54;77.65;;;12.43;;
53781;SDS011;39692;53.114;7.060;2023-03-01T08:12:20;61.63;;;10.10;;
53781;SDS011;39692;53.114;7.060;2023-03-01T08:14:46;52.97;;;10.85;;
53781;SDS011;39692;53.114;7.060;2023-03-01T08:17:15;101.25;;;10.88;;
53781;SDS011;39692;53.114;7.060;2023-03-01T08:19:42;91.07;;;12.88;;
53781;SDS011;39692;53.114;7.060;2023-03-01T08:22:08;83.60;;;12.45;;
53781;SDS011;39692;53.114;7.060;2023-03-01T08:24:34;77.68;;;12.10;;
53781;SDS011;39692;53.114;7.060;2023-03-01T08:27:00;22.80;;;12.05;;
53781;SDS011;39692;53.114;7.060;2023-03-01T08:29:27;51.22;;;11.63;;
53781;SDS011;39692;53.114;7.060;2023-03-01T08:31:54;48.92;;;11.88;;
53781;SDS011;39692;53.114;7.060;2023-03-01T08:34:20;66.43;;;12.43;;
53781;SDS011;39692;53.114;7.060;2023-03-01T08:36:46;47.65;;;11.55;;
53781;SDS011;39692;53.114;7.060;2023-03-01T08:39:13;60.95;;;12.65;;
53781;SDS011;39692;53.114;7.060;2023-03-01T08:41:40;64.75;;;11.82;;
53781;SDS011;39692;53.114;7.060;2023-03-01T08:44:07;82.38;;;13.05;;
53781;SDS011;39692;53.114;7.060;2023-03-01T08:46:35;84.45;;;13.10;;
53781;SDS011;39692;53.114;7.060;2023-03-01T08:49:04;91.22;;;12.68;;
53781;SDS011;39692;53.114;7.060;2023-03-01T08:51:31;68.55;;;12.38;;
53781;SDS011;39692;53.114;7.060;2023-03-01T08:54:02;50.00;;;11.15;;
53781;SDS011;39692;53.114;7.060;2023-03-01T08:56:28;52.47;;;11.48;;
53781;SDS011;39692;53.114;7.060;2023-03-01T08:58:54;60.25;;;12.10;;
53781;SDS011;39692;53.114;7.060;2023-03-01T09:01:20;47.05;;;11.35;;
53781;SDS011;39692;53.114;7.060;2023-03-01T09:03:46;39.20;;;9.85;;
53781;SDS011;39692;53.114;7.060;2023-03-01T09:06:12;46.70;;;11.32;;
53781;SDS011;39692;53.114;7.060;2023-03-01T09:08:40;33.85;;;10.20;;
53781;SDS011;39692;53.114;7.060;2023-03-01T09:11:06;65.88;;;11.75;;
53781;SDS011;39692;53.114;7.060;2023-03-01T09:13:33;100.82;;;13.82;;
53781;SDS011;39692;53.114;7.060;2023-03-01T09:16:03;89.28;;;13.32;;
53781;SDS011;39692;53.114;7.060;2023-03-01T09:18:29;31.85;;;11.02;;
53781;SDS011;39692;53.114;7.060;2023-03-01T09:21:12;42.92;;;11.93;;
53781;SDS011;39692;53.114;7.060;2023-03-01T09:23:39;57.10;;;13.07;;
53781;SDS011;39692;53.114;7.060;2023-03-01T09:26:07;75.28;;;13.70;;
53781;SDS011;39692;53.114;7.060;2023-03-01T09:28:34;23.88;;;10.05;;
53781;SDS011;39692;53.114;7.060;2023-03-01T09:31:00;24.90;;;10.98;;
53781;SDS011;39692;53.114;7.060;2023-03-01T09:33:28;19.98;;;9.73;;
53781;SDS011;39692;53.114;7.060;2023-03-01T09:35:57;19.70;;;11.25;;
53781;SDS011;39692;53.114;7.060;2023-03-01T09:38:24;30.13;;;11.25;;
53781;SDS011;39692;53.114;7.060;2023-03-01T09:40:50;21.85;;;11.27;;
53781;SDS011;39692;53.114;7.060;2023-03-01T09:43:26;19.60;;;12.88;;
53781;SDS011;39692;53.114;7.060;2023-03-01T09:45:55;24.10;;;11.93;;
53781;SDS011;39692;53.114;7.060;2023-03-01T09:48:24;20.45;;;13.68;;
53781;SDS011;39692;53.114;7.060;2023-03-01T09:50:52;27.33;;;13.02;;
53781;SDS011;39692;53.114;7.060;2023-03-01T09:53:19;24.05;;;12.25;;
53781;SDS011;39692;53.114;7.060;2023-03-01T09:58:32;21.58;;;14.30;;
53781;SDS011;39692;53.114;7.060;2023-03-01T10:01:25;20.17;;;14.50;;
53781;SDS011;39692;53.114;7.060;2023-03-01T10:04:12;22.08;;;14.88;;
53781;SDS011;39692;53.114;7.060;2023-03-01T10:06:34;23.90;;;17.90;;
53781;SDS011;39692;53.114;7.060;2023-03-01T10:09:02;20.40;;;14.40;;
53781;SDS011;39692;53.114;7.060;2023-03-01T10:11:36;20.58;;;15.20;;
53781;SDS011;39692;53.114;7.060;2023-03-01T10:14:03;25.25;;;15.50;;
53781;SDS011;39692;53.114;7.060;2023-03-01T10:19:08;24.35;;;15.93;;
53781;SDS011;39692;53.114;7.060;2023-03-01T10:21:40;22.77;;;16.95;;
53781;SDS011;39692;53.114;7.060;2023-03-01T10:24:10;20.58;;;15.60;;
53781;SDS011;39692;53.114;7.060;2023-03-01T10:29:10;22.73;;;14.88;;
53781;SDS011;39692;53.114;7.060;2023-03-01T10:31:47;22.63;;;17.60;;
53781;SDS011;39692;53.114;7.060;2023-03-01T10:36:52;21.65;;;17.30;;
53781;SDS011;39692;53.114;7.060;2023-03-01T10:39:22;25.67;;;21.50;;
53781;SDS011;39692;53.114;7.060;2023-03-01T10:41:52;24.95;;;19.48;;
53781;SDS011;39692;53.114;7.060;2023-03-01T10:44:36;25.83;;;19.20;;
53781;SDS011;39692;53.114;7.060;2023-03-01T10:47:02;23.55;;;19.85;;
53781;SDS011;39692;53.114;7.060;2023-03-01T10:49:29;24.08;;;20.67;;
53781;SDS011;39692;53.114;7.060;2023-03-01T10:51:55;22.88;;;17.85;;
53781;SDS011;39692;53.114;7.060;2023-03-01T10:56:57;25.13;;;19.98;;
53781;SDS011;39692;53.114;7.060;2023-03-01T10:59:36;22.92;;;19.45;;
53781;SDS011;39692;53.114;7.060;2023-03-01T11:02:07;20.73;;;17.27;;
53781;SDS011;39692;53.114;7.060;2023-03-01T11:04:42;21.27;;;17.75;;
53781;SDS011;39692;53.114;7.060;2023-03-01T11:07:21;23.00;;;19.13;;
53781;SDS011;39692;53.114;7.060;2023-03-01T11:09:47;23.50;;;18.83;;
53781;SDS011;39692;53.114;7.060;2023-03-01T11:12:14;22.33;;;18.85;;
53781;SDS011;39692;53.114;7.060;2023-03-01T11:14:50;22.88;;;19.55;;
53781;SDS011;39692;53.114;7.060;2023-03-01T11:17:20;21.67;;;18.88;;
53781;SDS011;39692;53.114;7.060;2023-03-01T11:20:05;21.38;;;18.60;;
53781;SDS011;39692;53.114;7.060;2023-03-01T11:22:32;21.05;;;17.88;;
53781;SDS011;39692;53.114;7.060;2023-03-01T11:24:59;22.58;;;18.27;;
53781;SDS011;39692;53.114;7.060;2023-03-01T11:27:34;21.27;;;17.98;;
53781;SDS011;39692;53.114;7.060;2023-03-01T11:32:31;20.48;;;17.40;;
53781;SDS011;39692;53.114;7.060;2023-03-01T11:35:04;21.60;;;18.73;;
53781;SDS011;39692;53.114;7.060;2023-03-01T11:40:05;18.08;;;15.88;;
53781;SDS011;39692;53.114;7.060;2023-03-01T11:42:46;19.25;;;17.17;;
53781;SDS011;39692;53.114;7.060;2023-03-01T11:45:14;18.35;;;16.42;;
53781;SDS011;39692;53.114;7.060;2023-03-01T11:50:14;18.55;;;16.60;;
53781;SDS011;39692;53.114;7.060;2023-03-01T11:52:52;19.33;;;17.20;;
53781;SDS011;39692;53.114;7.060;2023-03-01T12:08:52;19.27;;;15.27;;
53781;SDS011;39692;53.114;7.060;2023-03-01T12:26:52;17.40;;;14.60;;
53781;SDS011;39692;53.114;7.060;2023-03-01T12:47:30;15.68;;;14.00;;
53781;SDS011;39692;53.114;7.060;2023-03-01T12:50:42;15.05;;;13.45;;
53781;SDS011;39692;53.114;7.060;2023-03-01T12:52:56;14.95;;;13.35;;
53781;SDS011;39692;53.114;7.060;2023-03-01T12:55:30;15.63;;;13.63;;
53781;SDS011;39692;53.114;7.060;2023-03-01T13:03:00;14.32;;;12.82;;
53781;SDS011;39692;53.114;7.060;2023-03-01T13:10:56;17.20;;;14.60;;
53781;SDS011;39692;53.114;7.060;2023-03-01T13:13:25;16.27;;;14.50;;
53781;SDS011;39692;53.114;7.060;2023-03-01T13:15:52;15.82;;;13.63;;
53781;SDS011;39692;53.114;7.060;2023-03-01T13:20:51;19.13;;;15.77;;
53781;SDS011;39692;53.114;7.060;2023-03-01T13:31:03;19.02;;;16.45;;
53781;SDS011;39692;53.114;7.060;2023-03-01T13:35:58;16.33;;;14.07;;
53781;SDS011;39692;53.114;7.060;2023-03-01T13:41:09;15.65;;;14.02;;
53781;SDS011;39692;53.114;7.060;2023-03-01T13:43:35;16.52;;;14.82;;
53781;SDS011;39692;53.114;7.060;2023-03-01T13:46:36;17.98;;;13.85;;
53781;SDS011;39692;53.114;7.060;2023-03-01T13:48:54;16.08;;;13.43;;
53781;SDS011;39692;53.114;7.060;2023-03-01T13:51:26;15.90;;;12.35;;
53781;SDS011;39692;53.114;7.060;2023-03-01T13:53:54;14.48;;;10.93;;
53781;SDS011;39692;53.114;7.060;2023-03-01T13:56:23;15.80;;;10.65;;
53781;SDS011;39692;53.114;7.060;2023-03-01T13:58:58;16.42;;;10.48;;
53781;SDS011;39692;53.114;7.060;2023-03-01T14:01:32;15.65;;;9.27;;
53781;SDS011;39692;53.114;7.060;2023-03-01T14:03:59;13.55;;;9.15;;
53781;SDS011;39692;53.114;7.060;2023-03-01T14:06:26;15.48;;;9.32;;
53781;SDS011;39692;53.114;7.060;2023-03-01T14:09:02;16.55;;;9.98;;
53781;SDS011;39692;53.114;7.060;2023-03-01T14:14:12;14.77;;;8.68;;
53781;SDS011;39692;53.114;7.060;2023-03-01T14:16:49;16.73;;;9.13;;
53781;SDS011;39692;53.114;7.060;2023-03-01T14:19:24;14.07;;;8.75;;
53781;SDS011;39692;53.114;7.060;2023-03-01T14:21:58;15.20;;;9.43;;
53781;SDS011;39692;53.114;7.060;2023-03-01T14:24:52;14.45;;;9.27;;
53781;SDS011;39692;53.114;7.060;2023-03-01T14:27:35;15.55;;;8.82;;
53781;SDS011;39692;53.114;7.060;2023-03-01T14:30:26;14.25;;;7.63;;
53781;SDS011;39692;53.114;7.060;2023-03-01T14:32:53;16.58;;;8.55;;
53781;SDS011;39692;53.114;7.060;2023-03-01T14:35:21;13.15;;;7.72;;
53781;SDS011;39692;53.114;7.060;2023-03-01T14:37:49;13.55;;;8.10;;
53781;SDS011;39692;53.114;7.060;2023-03-01T14:42:58;16.85;;;8.07;;
53781;SDS011;39692;53.114;7.060;2023-03-01T14:45:26;11.65;;;7.40;;
53781;SDS011;39692;53.114;7.060;2023-03-01T14:47:54;11.85;;;6.90;;
53781;SDS011;39692;53.114;7.060;2023-03-01T14:50:27;14.95;;;8.90;;
53781;SDS011;39692;53.114;7.060;2023-03-01T14:52:56;16.23;;;8.45;;
53781;SDS011;39692;53.114;7.060;2023-03-01T14:58:05;11.35;;;6.50;;
53781;SDS011;39692;53.114;7.060;2023-03-01T15:00:34;14.88;;;8.20;;
53781;SDS011;39692;53.114;7.060;2023-03-01T15:03:04;13.02;;;7.75;;
53781;SDS011;39692;53.114;7.060;2023-03-01T15:05:38;19.55;;;8.32;;
53781;SDS011;39692;53.114;7.060;2023-03-01T15:08:06;15.18;;;7.75;;
53781;SDS011;39692;53.114;7.060;2023-03-01T15:10:34;16.25;;;9.50;;
53781;SDS011;39692;53.114;7.060;2023-03-01T15:13:23;14.73;;;7.90;;
53781;SDS011;39692;53.114;7.060;2023-03-01T15:15:53;16.48;;;8.77;;
53781;SDS011;39692;53.114;7.060;2023-03-01T15:18:48;13.13;;;7.82;;
53781;SDS011;39692;53.114;7.060;2023-03-01T15:24:00;13.43;;;7.78;;
53781;SDS011;39692;53.114;7.060;2023-03-01T15:26:29;17.88;;;8.65;;
53781;SDS011;39692;53.114;7.060;2023-03-01T15:28:58;16.35;;;8.45;;
53781;SDS011;39692;53.114;7.060;2023-03-01T15:31:26;18.10;;;9.55;;
53781;SDS011;39692;53.114;7.060;2023-03-01T15:33:52;13.68;;;7.45;;
53781;SDS011;39692;53.114;7.060;2023-03-01T15:39:04;14.77;;;8.38;;
53781;SDS011;39692;53.114;7.060;2023-03-01T15:41:33;14.40;;;8.48;;
53781;SDS011;39692;53.114;7.060;2023-03-01T15:44:17;16.70;;;9.27;;
53781;SDS011;39692;53.114;7.060;2023-03-01T15:46:50;14.35;;;9.57;;
53781;SDS011;39692;53.114;7.060;2023-03-01T15:49:27;16.38;;;9.23;;
53781;SDS011;39692;53.114;7.060;2023-03-01T15:52:21;11.98;;;6.65;;
53781;SDS011;39692;53.114;7.060;2023-03-01T15:54:58;16.20;;;8.18;;
53781;SDS011;39692;53.114;7.060;2023-03-01T15:57:26;15.25;;;9.18;;
53781;SDS011;39692;53.114;7.060;2023-03-01T15:59:52;12.93;;;8.38;;
53781;SDS011;39692;53.114;7.060;2023-03-01T16:02:17;16.98;;;8.60;;
53781;SDS011;39692;53.114;7.060;2023-03-01T16:04:46;14.60;;;7.43;;
53781;SDS011;39692;53.114;7.060;2023-03-01T16:07:13;16.27;;;8.88;;
53781;SDS011;39692;53.114;7.060;2023-03-01T16:09:39;17.25;;;8.60;;
53781;SDS011;39692;53.114;7.060;2023-03-01T16:12:05;13.60;;;8.57;;
53781;SDS011;39692;53.114;7.060;2023-03-01T16:14:34;21.90;;;10.18;;
53781;SDS011;39692;53.114;7.060;2023-03-01T16:16:59;16.63;;;10.43;;
53781;SDS011;39692;53.114;7.060;2023-03-01T16:19:25;17.30;;;9.00;;
53781;SDS011;39692;53.114;7.060;2023-03-01T16:21:50;13.38;;;8.10;;
53781;SDS011;39692;53.114;7.060;2023-03-01T16:24:16;13.13;;;9.13;;
53781;SDS011;39692;53.114;7.060;2023-03-01T16:26:42;15.63;;;8.50;;
53781;SDS011;39692;53.114;7.060;2023-03-01T16:29:08;11.55;;;7.60;;
53781;SDS011;39692;53.114;7.060;2023-03-01T16:31:33;14.45;;;8.60;;